Nearby METAR Reports

 

KPIA - Peoria, Illinois, USA
Distance from station: SSW 11mi, 18km
Updated: 08/14/2018 4:54am
Clear
Clear
 Wind from calm
Wind: Calm
Temperature: 68°F , 20°C
Dew Point: 66°F , 19°C
Humidity: 94%
Barometer: 30.01 inHg , 1016.3 hPa
Clouds: Clear
Visibility: 9 miles , 14 km
2018/08/14 09:54 KPIA 140954Z 00000KT 9SM CLR 20/19 A3001 RMK AO2 SLP156 T02000189
KC75 - Lacon, Illinois, USA
Distance from station: NE 18mi, 30km
Updated: 08/14/2018 5:35am
Clear
Clear
 Wind from calm
Wind: Calm
Temperature: 63°F , 17°C
Dew Point: 63°F , 17°C
Humidity: 100%
Barometer: 30.00 inHg , 1015.9 hPa
Clouds: Clear
Visibility: 10 miles , 16 km
2018/08/14 10:35 KC75 141035Z AUTO 00000KT 10SM CLR 17/17 A3000 RMK AO2 T01720167
 
KGBG - Galesburg, Illinois, USA
Distance from station: W 43mi, 69km
Updated: 08/14/2018 5:35am
Clear
Clear
 Wind from calm
Wind: Calm
Temperature: 66°F , 19°C
Dew Point: 64°F , 18°C
Humidity: 94%
Barometer: 30.01 inHg , 1016.3 hPa
Clouds: Clear
Visibility: 10 miles , 16 km
2018/08/14 10:35 KGBG 141035Z AUTO 00000KT 10SM CLR 19/18 A3001 RMK AO2 T01870180
KBMI - Bloomington/Norm, Illinois, USA
Distance from station: ESE 44mi, 71km
Updated: 08/14/2018 4:56am
Clear
Clear
 Wind from SSW
Wind: SSW 5 mph , 7 km/h
Temperature: 63°F , 17°C
Dew Point: 59°F , 15°C
Humidity: 88%
Barometer: 30.03 inHg , 1016.9 hPa
Clouds: Clear
Visibility: 10 miles , 16 km
2018/08/14 09:56 KBMI 140956Z AUTO 21004KT 10SM CLR 17/15 A3003 RMK AO2 SLP180 T01670150
 
KVYS - Peru, Illinois, USA
Distance from station: NNE 44mi, 71km
Updated: 08/14/2018 5:35am
Clear
Clear
 Wind from calm
Wind: Calm
Temperature: 66°F , 19°C
Dew Point: 63°F , 17°C
Humidity: 88%
Barometer: 30.01 inHg , 1016.3 hPa
Clouds: Clear
Visibility: 10 miles , 16 km
2018/08/14 10:35 KVYS 141035Z AUTO 00000KT 10SM CLR 19/17 A3001 RMK AO2 T01860172
KAAA - Lincoln, Illinois, USA
Distance from station: SSE 48mi, 77km
Updated: 08/14/2018 5:35am
Clear
Clear
 Wind from calm
Wind: Calm
Temperature: 61°F , 16°C
Dew Point: 61°F , 16°C
Humidity: 100%
Barometer: 30.01 inHg , 1016.3 hPa
Clouds: Clear
Visibility: 10 miles , 16 km
2018/08/14 10:35 KAAA 141035Z AUTO 00000KT 10SM CLR 16/16 A3001 RMK AO2 T01610155
 
KPNT - Pontiac, Illinois, USA
Distance from station: E 53mi, 85km
Updated: 08/14/2018 5:35am
Clear
Clear
 Wind from calm
Wind: Calm
Temperature: 61°F , 16°C
Dew Point: 59°F , 15°C
Humidity: 94%
Barometer: 30.03 inHg , 1016.9 hPa
Clouds: Clear
Visibility: 10 miles , 16 km
2018/08/14 10:35 KPNT 141035Z AUTO 00000KT 10SM CLR 16/15 A3003 RMK AO2 T01560154
KMQB - Macomb Muni, Illinois, USA
Distance from station: WSW 58mi, 93km
Updated: 08/14/2018 5:35am
Mist, Clear
Mist, Clear
 Wind from ESE
Wind: ESE 3 mph , 6 km/h
Temperature: 61°F , 16°C
Dew Point: 61°F , 16°C
Humidity: 100%
Barometer: 30.01 inHg , 1016.3 hPa
Summary: Mist
Clouds: Clear
Visibility: 4 miles , 6 km
2018/08/14 10:35 KMQB 141035Z AUTO 11003KT 4SM BR CLR 16/16 A3001 RMK AO2 T01610160
 
KMLI - Moline/Quad City, Illinois, USA
Distance from station: NW 64mi, 103km
Updated: 08/14/2018 4:52am
Clear
Clear
 Wind from calm
Wind: Calm
Temperature: 68°F , 20°C
Dew Point: 64°F , 18°C
Humidity: 88%
Barometer: 29.99 inHg , 1015.6 hPa
Clouds: Clear
Visibility: 9 miles , 14 km
2018/08/14 09:52 KMLI 140952Z AUTO 00000KT 9SM CLR 20/18 A2999 RMK AO2 SLP149 T02000178
KSQI - Sterling Rockfal, Illinois, USA
Distance from station: N 64mi, 103km
Updated: 08/14/2018 4:56am
Mist, Clear
Mist, Clear
 Wind from calm
Wind: Calm
Temperature: 63°F , 17°C
Dew Point: 63°F , 17°C
Humidity: 100%
Barometer: 30.00 inHg , 1015.9 hPa
Summary: Mist
Clouds: Clear
Visibility: 4 miles , 6 km
2018/08/14 09:56 KSQI 140956Z AUTO 00000KT 4SM BR CLR 17/17 A3000 RMK AO2 SLP171 T01670167
 
KSPI - Springfield, Illinois, USA
Distance from station: S 67mi, 108km
Updated: 08/14/2018 4:52am
Clear
Clear
 Wind from SSE
Wind: SSE 3 mph , 6 km/h
Temperature: 68°F , 20°C
Dew Point: 66°F , 19°C
Humidity: 94%
Barometer: 30.01 inHg , 1016.3 hPa
Clouds: Clear
Visibility: 8 miles , 13 km
2018/08/14 09:52 KSPI 140952Z AUTO 16003KT 8SM CLR 20/19 A3001 RMK AO2 SLP157 T02000189
KDVN - Davenport/Quad C, Iowa, USA
Distance from station: NW 74mi, 120km
Updated: 08/14/2018 4:52am
Clear
Clear
 Wind from calm
Wind: Calm
Temperature: 63°F , 17°C
Dew Point: 59°F , 15°C
Humidity: 88%
Barometer: 30.01 inHg , 1016.3 hPa
Clouds: Clear
Visibility: 9 miles , 14 km
2018/08/14 09:52 KDVN 140952Z AUTO 00000KT 9SM CLR 17/15 A3001 RMK AO2 SLP155 T01670150